KNUQ

Moffett Federal Afld Airport

Mountain View, California, USA
METAR KNUQ 172056Z 36005KT 10SM CLR 21/11 A3006 RMK AO2 SLP181 T02110106 58020
Observed Flight Rules
Oct-17 @ 20:56 UTC (6 minutes ago) Visual Flight Rules
Wind Visibility Clouds
360° at 5 knots 10 miles
  • Clear skies
Temperatures Readings
Current 21°C / 70°F
Dewpoint 11°C / 52°F
Humidity 53%
Altimeter 30.06" Hg
Pressure 1018.1 hPa
Elevation 12
METAR KNUQ 172056Z 36005KT 10SM CLR 21/11 A3006 RMK AO2 SLP181 T02110106 58020
Observed Flight Rules
Oct-17 @ 20:56 UTC
(6 minutes ago)
VFR
Wind Visibility
360° at 5 knots 10 miles
Clouds
  • Clear skies
Temperature Dewpoint
21°C / 70°F 11°C / 52°F
Humidity Altimeter Pressure
53% 30.06" Hg 1018.1 hPa